Time;durP1;ratioP1;P1;durP2;ratioP2;P2;SDS_P1;SDS_P2;PMS_P1;PMS_P2;Temp;Humidity;BMP_temperature;BMP_pressure;BME280_temperature;BME280_humidity;BME280_pressure;Samples;Min_cycle;Max_cycle;Signal;HPM_P1;HPM_P2
2021/01/07 00:01:47;;;;;;;11.67;9.60;;;;;;;1.82;81.51;95191.72;5072528;28;20208;-79
2021/01/07 00:04:12;;;;;;;11.80;9.27;;;;;;;1.72;82.12;95184.13;5072115;28;20232;-81
2021/01/07 00:06:38;;;;;;;12.33;9.50;;;;;;;1.79;81.91;95184.38;5076981;28;20192;-79
2021/01/07 00:09:05;;;;;;;12.47;10.00;;;;;;;1.78;81.91;95187.06;5093359;28;20196;-80
2021/01/07 00:11:30;;;;;;;13.30;9.83;;;;;;;1.76;82.05;95191.44;5089753;28;20197;-80
2021/01/07 00:13:56;;;;;;;13.03;9.83;;;;;;;1.80;82.32;95190.25;5071315;28;20968;-81
2021/01/07 00:16:22;;;;;;;12.03;10.07;;;;;;;1.83;82.06;95207.75;5073488;28;20242;-79
2021/01/07 00:18:49;;;;;;;13.23;9.97;;;;;;;1.88;81.88;95208.97;5072941;28;20200;-80
2021/01/07 00:21:15;;;;;;;10.63;9.13;;;;;;;1.94;81.69;95202.56;5074175;28;20205;-80
2021/01/07 00:23:41;;;;;;;12.40;10.07;;;;;;;1.93;81.54;95206.81;5092419;28;20650;-81
2021/01/07 00:26:07;;;;;;;12.50;9.53;;;;;;;1.98;81.69;95207.25;5091923;28;20218;-79
2021/01/07 00:28:34;;;;;;;12.13;10.00;;;;;;;2.03;81.34;95210.19;5091520;28;20613;-80
2021/01/07 00:31:00;;;;;;;12.03;9.87;;;;;;;1.97;81.77;95207.38;5092530;28;20586;-79
2021/01/07 00:33:26;;;;;;;13.37;10.70;;;;;;;1.94;81.62;95212.69;5072790;28;20221;-81
2021/01/07 00:35:53;;;;;;;12.00;9.63;;;;;;;1.91;82.05;95201.09;5072327;28;20227;-81
2021/01/07 00:38:19;;;;;;;12.10;10.60;;;;;;;1.93;82.01;95208.56;5089790;28;20204;-79
2021/01/07 00:40:44;;;;;;;11.00;9.40;;;;;;;1.94;82.30;95197.47;5092820;28;20240;-81
2021/01/07 00:43:10;;;;;;;11.77;9.63;;;;;;;1.98;82.21;95199.63;5090703;28;20219;-80
2021/01/07 00:45:36;;;;;;;12.47;10.20;;;;;;;2.05;81.96;95200.69;5091841;28;20297;-79
2021/01/07 00:48:03;;;;;;;12.03;10.43;;;;;;;2.00;82.15;95204.56;5091931;28;20242;-80
2021/01/07 00:50:29;;;;;;;14.57;10.70;;;;;;;1.97;81.89;95205.63;5072732;28;20246;-78
2021/01/07 00:52:56;;;;;;;12.07;9.90;;;;;;;1.99;81.95;95205.50;5087494;28;20196;-80
2021/01/07 00:55:22;;;;;;;12.27;10.10;;;;;;;1.98;82.08;95207.25;5092296;28;20216;-80
2021/01/07 00:57:48;;;;;;;13.00;10.60;;;;;;;1.93;82.47;95206.03;5078885;28;20208;-80
2021/01/07 01:00:18;;;;;;;13.53;10.83;;;;;;;1.95;82.34;95211.78;5080119;28;20228;-81
2021/01/07 01:02:45;;;;;;;13.37;10.20;;;;;;;1.97;82.27;95208.16;5079365;28;20240;-81
2021/01/07 01:05:11;;;;;;;14.00;10.80;;;;;;;2.00;82.35;95220.59;5090327;28;20223;-82
2021/01/07 01:07:37;;;;;;;13.00;10.63;;;;;;;1.91;83.02;95218.06;5092924;28;20204;-80
2021/01/07 01:10:07;;;;;;;13.27;10.30;;;;;;;1.83;83.17;95215.38;5076759;28;20196;-80
2021/01/07 01:12:33;;;;;;;12.87;10.20;;;;;;;1.88;83.52;95221.69;5084832;28;20234;-82
2021/01/07 01:14:59;;;;;;;12.30;9.63;;;;;;;1.81;83.74;95220.59;5093664;28;20266;-79
2021/01/07 01:17:25;;;;;;;12.60;9.97;;;;;;;1.92;82.62;95219.69;5086515;28;20670;-80
2021/01/07 01:19:51;;;;;;;13.77;10.73;;;;;;;1.91;83.14;95220.59;5073134;28;20208;-80
2021/01/07 01:22:17;;;;;;;12.83;10.27;;;;;;;2.00;82.70;95217.25;5081472;28;20203;-80
2021/01/07 01:24:42;;;;;;;13.13;10.87;;;;;;;2.00;82.39;95217.25;5092223;28;20223;-79
2021/01/07 01:27:10;;;;;;;12.07;9.70;;;;;;;2.04;82.15;95227.03;5085283;28;20205;-80
2021/01/07 01:29:35;;;;;;;13.67;10.60;;;;;;;2.09;82.44;95224.09;5072270;28;20201;-81
2021/01/07 01:32:01;;;;;;;12.97;10.47;;;;;;;2.11;81.84;95229.84;5078548;28;20683;-80
2021/01/07 01:34:27;;;;;;;12.93;10.77;;;;;;;2.03;82.52;95230.50;5092619;28;20228;-81
2021/01/07 01:36:53;;;;;;;12.50;10.13;;;;;;;2.00;82.49;95242.66;5083252;28;20284;-80
2021/01/07 01:39:19;;;;;;;13.03;10.13;;;;;;;2.01;82.84;95241.72;5072031;28;20193;-79
2021/01/07 01:41:47;;;;;;;14.23;11.27;;;;;;;2.01;82.75;95239.97;5079181;28;20196;-79
2021/01/07 01:44:16;;;;;;;12.67;10.37;;;;;;;2.01;82.96;95234.91;5092326;28;20224;-78
2021/01/07 01:46:43;;;;;;;13.30;10.43;;;;;;;2.03;82.62;95234.78;5087037;28;20197;-80
2021/01/07 01:49:12;;;;;;;13.67;9.97;;;;;;;2.00;82.83;95235.03;5072431;28;20547;-80
2021/01/07 01:51:38;;;;;;;13.63;10.87;;;;;;;1.96;83.22;95234.50;5078023;28;20196;-79
2021/01/07 01:54:06;;;;;;;12.53;9.70;;;;;;;1.86;83.68;95232.88;5092587;28;20216;-80
2021/01/07 01:56:33;;;;;;;12.93;10.67;;;;;;;1.89;84.03;95230.09;5088152;28;20205;-81
2021/01/07 01:59:00;;;;;;;13.87;10.10;;;;;;;1.97;83.65;95243.72;5072470;28;20738;-80
2021/01/07 02:01:27;;;;;;;11.80;9.70;;;;;;;2.01;83.87;95231.56;5072646;28;20196;-79
2021/01/07 02:03:53;;;;;;;12.33;9.83;;;;;;;1.98;84.02;95235.16;5071038;28;20228;-79
2021/01/07 02:06:22;;;;;;;14.67;10.70;;;;;;;1.96;83.96;95233.69;5074739;28;20203;-79
2021/01/07 02:08:49;;;;;;;12.67;10.67;;;;;;;2.00;83.85;95232.50;5092686;28;20939;-80
2021/01/07 02:11:16;;;;;;;12.57;10.33;;;;;;;2.06;83.98;95231.97;5090989;28;20690;-80
2021/01/07 02:13:45;;;;;;;14.43;11.20;;;;;;;2.09;83.54;95229.16;5071792;28;20282;-80
2021/01/07 02:16:11;;;;;;;14.13;10.90;;;;;;;2.09;83.23;95239.31;5071915;28;20220;-81
2021/01/07 02:18:38;;;;;;;13.87;11.07;;;;;;;2.08;83.15;95230.09;5071536;28;20208;-80
2021/01/07 02:21:05;;;;;;;12.53;10.27;;;;;;;2.03;83.39;95234.78;5071846;28;20196;-79
2021/01/07 02:23:31;;;;;;;13.60;10.93;;;;;;;2.06;83.87;95235.31;5089832;28;20695;-78
2021/01/07 02:25:57;;;;;;;15.27;11.13;;;;;;;2.08;83.23;95227.56;5091881;28;20200;-80
2021/01/07 02:28:24;;;;;;;13.37;10.47;;;;;;;2.06;83.21;95234.50;5073907;28;20203;-81
2021/01/07 02:30:50;;;;;;;13.73;10.90;;;;;;;2.01;83.54;95231.56;5071326;28;20197;-79
2021/01/07 02:33:16;;;;;;;13.20;10.43;;;;;;;2.00;83.58;95232.50;5072719;28;20239;-79
2021/01/07 02:35:42;;;;;;;12.63;10.23;;;;;;;2.04;83.17;95231.28;5090736;28;20210;-79
2021/01/07 02:38:08;;;;;;;13.33;10.90;;;;;;;2.09;83.14;95226.63;5077468;28;20201;-81
2021/01/07 02:40:34;;;;;;;12.13;10.07;;;;;;;1.99;83.42;95226.63;5076383;28;20656;-79
2021/01/07 02:43:03;;;;;;;13.17;10.17;;;;;;;2.05;83.25;95231.16;5089711;28;20206;-79
2021/01/07 02:45:29;;;;;;;14.13;10.40;;;;;;;2.06;82.87;95237.03;5095539;28;20231;-80
2021/01/07 02:47:55;;;;;;;13.43;10.57;;;;;;;2.08;83.08;95227.56;5081754;28;20198;-80
2021/01/07 02:50:21;;;;;;;12.80;10.10;;;;;;;2.10;82.97;95224.91;5075455;28;20233;-79
2021/01/07 02:52:47;;;;;;;12.63;10.07;;;;;;;2.04;82.80;95229.56;5087556;28;20220;-79
2021/01/07 02:55:14;;;;;;;12.00;9.93;;;;;;;2.05;82.58;95228.63;5094940;28;20216;-80
2021/01/07 02:57:40;;;;;;;12.37;9.87;;;;;;;2.05;82.34;95217.66;5083145;28;20215;-80
2021/01/07 03:00:07;;;;;;;13.40;10.03;;;;;;;2.08;82.07;95223.28;5088590;28;20196;-80
2021/01/07 03:02:32;;;;;;;11.73;9.63;;;;;;;2.08;82.47;95225.03;5076139;28;20200;-79
2021/01/07 03:04:58;;;;;;;12.53;9.90;;;;;;;2.12;82.01;95220.50;5073898;28;20608;-79
2021/01/07 03:07:24;;;;;;;11.43;9.23;;;;;;;2.03;81.97;95215.25;5081732;28;20189;-79
2021/01/07 03:09:50;;;;;;;10.60;9.13;;;;;;;2.13;81.66;95219.53;5074280;28;20254;-78
2021/01/07 03:12:18;;;;;;;12.13;9.37;;;;;;;2.10;81.62;95214.72;5089353;28;20200;-80
2021/01/07 03:14:45;;;;;;;11.23;9.13;;;;;;;2.14;81.54;95219.38;5094543;28;20212;-79
2021/01/07 03:17:11;;;;;;;11.50;8.60;;;;;;;2.08;81.10;95223.28;5092529;28;20192;-79
2021/01/07 03:19:37;;;;;;;10.03;8.70;;;;;;;2.14;80.73;95224.47;5094148;28;20191;-79
2021/01/07 03:22:04;;;;;;;11.10;9.30;;;;;;;2.07;80.88;95221.69;5082888;28;20243;-80
2021/01/07 03:24:30;;;;;;;10.23;9.13;;;;;;;2.10;81.26;95225.69;5090526;28;20297;-79
2021/01/07 03:26:59;;;;;;;15.90;9.40;;;;;;;2.16;81.00;95216.72;5084350;28;20208;-79
2021/01/07 03:29:26;;;;;;;10.70;8.67;;;;;;;2.24;80.89;95220.22;5074462;28;20201;-80
2021/01/07 03:31:55;;;;;;;10.53;8.70;;;;;;;2.23;80.23;95212.72;5083623;28;20192;-80
2021/01/07 03:34:21;;;;;;;10.23;9.00;;;;;;;2.16;80.34;95222.59;5094436;28;20242;-80
2021/01/07 03:36:47;;;;;;;10.73;8.60;;;;;;;2.14;80.72;95216.06;5084401;28;20196;-79
2021/01/07 03:39:13;;;;;;;9.70;8.00;;;;;;;2.21;80.41;95228.09;5095240;28;20253;-79
2021/01/07 03:41:39;;;;;;;10.27;8.43;;;;;;;2.23;80.06;95223.69;5077201;28;20193;-81
2021/01/07 03:44:05;;;;;;;10.27;8.80;;;;;;;2.25;79.95;95221.00;5073769;28;20248;-80
2021/01/07 03:46:32;;;;;;;11.40;8.47;;;;;;;2.26;79.93;95225.16;5082082;28;20246;-80
2021/01/07 03:48:58;;;;;;;8.43;7.53;;;;;;;2.18;79.91;95223.28;5084418;28;20200;-81
2021/01/07 03:51:24;;;;;;;9.27;7.87;;;;;;;2.22;79.84;95228.88;5095526;28;20216;-81
2021/01/07 03:53:53;;;;;;;9.50;8.03;;;;;;;2.14;79.93;95224.47;5084366;28;20296;-81
2021/01/07 03:56:19;;;;;;;10.50;8.40;;;;;;;2.11;79.84;95229.03;5077331;28;20207;-80
2021/01/07 03:58:45;;;;;;;9.73;8.10;;;;;;;2.08;80.40;95227.56;5094032;28;20586;-80
2021/01/07 04:01:11;;;;;;;10.20;7.93;;;;;;;2.08;80.41;95230.09;5091363;28;20573;-80
2021/01/07 04:03:37;;;;;;;10.80;8.57;;;;;;;2.03;80.46;95222.06;5073901;28;20863;-80
2021/01/07 04:06:03;;;;;;;10.20;8.37;;;;;;;2.00;80.82;95229.94;5075173;28;20200;-80
2021/01/07 04:08:29;;;;;;;10.40;8.57;;;;;;;2.01;80.80;95223.94;5094067;28;20455;-80
2021/01/07 04:10:55;;;;;;;9.73;8.20;;;;;;;1.98;81.22;95227.53;5093563;28;20207;-81
2021/01/07 04:13:22;;;;;;;8.63;7.67;;;;;;;2.08;81.07;95230.09;5073353;28;20193;-80
2021/01/07 04:15:48;;;;;;;9.43;8.30;;;;;;;2.15;80.57;95226.06;5072875;28;20254;-80
2021/01/07 04:18:14;;;;;;;10.03;8.33;;;;;;;2.19;79.82;95224.88;5093642;28;20235;-80
2021/01/07 04:20:41;;;;;;;9.83;8.37;;;;;;;2.08;80.42;95235.19;5093307;28;20263;-80
2021/01/07 04:23:07;;;;;;;11.23;9.20;;;;;;;2.00;80.65;95229.94;5093151;28;20223;-80
2021/01/07 04:25:33;;;;;;;10.83;8.20;;;;;;;1.94;81.04;95230.47;5081900;28;20216;-80
2021/01/07 04:27:59;;;;;;;10.67;8.57;;;;;;;1.99;81.09;95241.84;5090071;28;20206;-79
2021/01/07 04:30:24;;;;;;;11.63;9.13;;;;;;;1.95;81.32;95240.50;5084009;28;20254;-80
2021/01/07 04:32:50;;;;;;;10.70;8.93;;;;;;;1.96;81.33;95243.84;5078199;28;20192;-81
2021/01/07 04:35:16;;;;;;;11.23;8.93;;;;;;;1.95;80.98;95240.50;5092143;28;20224;-80
2021/01/07 04:37:43;;;;;;;11.70;9.43;;;;;;;1.93;81.29;95242.34;5077949;28;20193;-80
2021/01/07 04:40:10;;;;;;;11.17;9.07;;;;;;;1.99;81.22;95236.75;5073027;28;20286;-80
2021/01/07 04:42:36;;;;;;;13.07;9.73;;;;;;;1.97;81.40;95242.91;5086233;28;20200;-80
2021/01/07 04:45:03;;;;;;;12.90;9.10;;;;;;;2.00;81.40;95245.19;5092398;28;20240;-80
2021/01/07 04:47:29;;;;;;;13.10;9.33;;;;;;;2.06;81.16;95237.84;5087023;28;20215;-81
2021/01/07 04:49:57;;;;;;;11.33;9.07;;;;;;;2.15;80.99;95238.78;5079004;28;20257;-81
2021/01/07 04:52:23;;;;;;;13.50;10.23;;;;;;;2.17;80.91;95241.19;5092642;28;20196;-80
2021/01/07 04:54:52;;;;;;;12.03;9.53;;;;;;;2.06;81.21;95235.31;5086723;28;20714;-80
2021/01/07 04:57:18;;;;;;;13.40;9.73;;;;;;;2.11;81.50;95241.72;5071624;28;20212;-80
2021/01/07 04:59:44;;;;;;;12.87;9.90;;;;;;;2.14;80.78;95238.91;5091015;28;20199;-80
2021/01/07 05:02:10;;;;;;;12.17;9.73;;;;;;;2.15;80.78;95243.84;5075376;28;20193;-80
2021/01/07 05:04:47;;;;;;;12.13;10.23;;;;;;;2.16;81.13;95244.66;5085206;28;20226;-80
2021/01/07 05:07:19;;;;;;;11.83;9.67;;;;;;;2.18;81.09;95237.72;5091845;28;20253;-80
2021/01/07 05:09:46;;;;;;;13.27;10.00;;;;;;;2.18;80.65;95240.25;5073241;28;20192;-78
2021/01/07 05:12:13;;;;;;;11.67;9.77;;;;;;;2.20;80.74;95246.00;5072748;28;20234;-80
2021/01/07 05:14:43;;;;;;;12.17;10.10;;;;;;;2.25;80.83;95239.59;5071030;28;20444;-81
2021/01/07 05:17:10;;;;;;;10.83;9.23;;;;;;;2.28;80.34;95241.06;5080434;28;20695;-79
2021/01/07 05:19:37;;;;;;;12.83;10.37;;;;;;;2.31;80.06;95250.97;5080254;28;20204;-80
2021/01/07 05:22:03;;;;;;;13.00;9.90;;;;;;;2.32;79.41;95248.25;5090937;28;20224;-80
2021/01/07 05:24:30;;;;;;;12.20;9.83;;;;;;;2.35;79.51;95245.44;5076673;28;20619;-79
2021/01/07 05:26:56;;;;;;;13.03;10.17;;;;;;;2.26;79.47;95246.28;5079750;28;20329;-80
2021/01/07 05:29:23;;;;;;;13.10;10.37;;;;;;;2.31;79.16;95240.81;5071290;28;20230;-80
2021/01/07 05:31:52;;;;;;;12.07;10.27;;;;;;;2.34;79.15;95241.31;5072735;28;20230;-80
2021/01/07 05:34:18;;;;;;;13.43;10.67;;;;;;;2.36;78.98;95251.34;5087340;28;20216;-78
2021/01/07 05:36:44;;;;;;;15.00;9.97;;;;;;;2.33;78.63;95246.53;5082350;28;20204;-79
2021/01/07 05:39:10;;;;;;;12.43;9.80;;;;;;;2.29;78.33;95242.66;5071368;28;20216;-80
2021/01/07 05:41:37;;;;;;;12.90;10.17;;;;;;;2.27;78.56;95247.06;5078146;28;20200;-79
2021/01/07 05:44:05;;;;;;;13.33;10.37;;;;;;;2.23;78.58;95248.28;5077366;28;20227;-80
2021/01/07 05:46:32;;;;;;;12.37;9.63;;;;;;;2.26;78.76;95248.81;5075768;28;20196;-80
2021/01/07 05:48:59;;;;;;;13.83;10.67;;;;;;;2.23;78.50;95238.91;5082247;28;20201;-80
2021/01/07 05:51:26;;;;;;;14.40;11.27;;;;;;;2.16;78.89;95240.38;5074350;28;20196;-82
2021/01/07 05:53:53;;;;;;;14.07;10.10;;;;;;;2.23;78.82;95238.91;5079963;28;20224;-80
2021/01/07 05:56:20;;;;;;;12.87;10.60;;;;;;;2.19;78.30;95245.19;5077494;28;20219;-79
2021/01/07 05:58:47;;;;;;;12.43;9.93;;;;;;;2.14;78.84;95243.97;5088831;28;20223;-81
2021/01/07 06:01:15;;;;;;;13.67;10.50;;;;;;;2.11;79.09;95247.63;5089343;28;20468;-79
2021/01/07 06:03:46;;;;;;;14.27;10.70;;;;;;;2.05;79.04;95251.47;5090675;28;20305;-78
2021/01/07 06:06:15;;;;;;;14.53;11.00;;;;;;;2.10;79.22;95242.66;5076477;28;20276;-80
2021/01/07 06:08:49;;;;;;;14.27;10.63;;;;;;;2.11;79.03;95250.16;5071092;28;20581;-82
2021/01/07 06:11:16;;;;;;;14.27;10.37;;;;;;;2.15;78.54;95248.94;5078258;28;20238;-80
2021/01/07 06:13:44;;;;;;;13.87;10.87;;;;;;;2.11;79.28;95249.34;5080136;28;20221;-80
2021/01/07 06:16:14;;;;;;;15.57;10.47;;;;;;;2.08;78.82;95251.22;5070495;28;20201;-80
2021/01/07 06:18:40;;;;;;;13.87;10.43;;;;;;;2.09;78.93;95262.19;5075407;28;20865;-80
2021/01/07 06:21:09;;;;;;;14.57;10.93;;;;;;;2.08;79.25;95260.56;5074505;28;20255;-79
2021/01/07 06:23:41;;;;;;;15.03;11.27;;;;;;;2.06;78.90;95257.34;5074753;28;20220;-80
2021/01/07 06:26:21;;;;;;;13.63;10.73;;;;;;;2.07;79.24;95252.16;5087767;28;20192;-79
2021/01/07 06:28:50;;;;;;;16.00;12.27;;;;;;;2.11;78.44;95256.97;5084088;28;20717;-79
2021/01/07 06:31:17;;;;;;;15.00;11.13;;;;;;;2.05;78.74;95248.13;5078126;28;20200;-78
2021/01/07 06:33:43;;;;;;;13.27;10.67;;;;;;;2.07;80.14;95257.22;5073724;28;20623;-79
2021/01/07 06:36:12;;;;;;;15.77;11.07;;;;;;;1.93;79.46;95254.25;5082312;28;20200;-80
2021/01/07 06:38:49;;;;;;;14.10;10.67;;;;;;;1.92;79.45;95255.22;5079997;28;20250;-79
2021/01/07 06:41:17;;;;;;;15.63;11.57;;;;;;;1.96;79.05;95251.44;5070329;28;20196;-81
2021/01/07 06:43:44;;;;;;;13.80;11.20;;;;;;;2.01;78.57;95249.31;5069780;28;20224;-79
2021/01/07 06:46:10;;;;;;;15.50;11.60;;;;;;;2.07;78.06;95257.22;5074722;28;20219;-79
2021/01/07 06:48:41;;;;;;;14.43;11.23;;;;;;;2.09;77.86;95254.56;5090400;28;20204;-80
2021/01/07 06:51:07;;;;;;;14.23;10.77;;;;;;;2.04;77.86;95254.16;5089511;28;20743;-79
2021/01/07 06:53:37;;;;;;;15.10;11.40;;;;;;;2.07;77.76;95252.16;5090708;28;20212;-78
2021/01/07 06:56:22;;;;;;;16.07;11.37;;;;;;;2.07;77.76;95247.06;5090021;28;20211;-79
2021/01/07 06:58:51;;;;;;;14.10;10.63;;;;;;;2.07;77.89;95244.53;5091372;28;20204;-79
2021/01/07 07:01:18;;;;;;;19.50;14.13;;;;;;;2.14;77.74;95251.59;5090531;28;20214;-80
2021/01/07 07:03:49;;;;;;;21.07;15.27;;;;;;;2.15;77.50;95250.66;5090124;28;20239;-80
2021/01/07 07:06:17;;;;;;;15.23;11.53;;;;;;;2.19;77.16;95257.88;5090312;28;20730;-80
2021/01/07 07:08:46;;;;;;;15.03;11.57;;;;;;;2.17;76.76;95252.13;5090272;28;20227;-80
2021/01/07 07:11:28;;;;;;;14.90;11.17;;;;;;;2.16;76.88;95253.06;5091432;28;20218;-79
2021/01/07 07:13:58;;;;;;;13.90;10.77;;;;;;;2.14;76.31;95257.47;5090638;28;20219;-78
2021/01/07 07:16:24;;;;;;;16.37;11.63;;;;;;;2.17;76.79;95266.56;5090861;28;20200;-77
2021/01/07 07:18:55;;;;;;;14.73;11.27;;;;;;;2.19;76.60;95270.59;5089904;28;20200;-80
2021/01/07 07:21:24;;;;;;;14.90;11.40;;;;;;;2.23;76.31;95268.59;5089942;28;20291;-79
2021/01/07 07:23:52;;;;;;;16.17;11.73;;;;;;;2.26;76.44;95271.66;5090425;28;20277;-79
2021/01/07 07:26:33;;;;;;;15.27;12.13;;;;;;;2.26;75.99;95279.28;5093851;28;20211;-79
2021/01/07 07:29:04;;;;;;;14.77;11.13;;;;;;;2.24;76.03;95280.34;5093612;28;20200;-79
2021/01/07 07:31:41;;;;;;;14.60;11.57;;;;;;;2.22;75.68;95282.22;5093436;28;20242;-79
2021/01/07 07:34:08;;;;;;;15.67;12.00;;;;;;;2.27;75.51;95288.53;5092730;28;20212;-80
2021/01/07 07:36:35;;;;;;;13.47;11.20;;;;;;;2.28;75.87;95292.66;5093598;28;20288;-80
2021/01/07 07:39:04;;;;;;;15.23;11.57;;;;;;;2.31;75.60;95283.97;5093582;28;20223;-80
2021/01/07 07:41:32;;;;;;;15.80;11.93;;;;;;;2.35;75.48;95290.38;5093694;28;20196;-81
2021/01/07 07:43:58;;;;;;;14.23;11.10;;;;;;;2.36;75.47;95289.44;5093307;28;20228;-80
2021/01/07 07:46:25;;;;;;;15.10;11.23;;;;;;;2.38;75.21;95290.09;5093808;28;20211;-80
2021/01/07 07:48:59;;;;;;;13.67;10.87;;;;;;;2.40;75.41;95283.16;5092775;28;20295;-81
2021/01/07 07:51:25;;;;;;;14.20;11.23;;;;;;;2.44;76.44;95294.66;5093104;28;20288;-81
2021/01/07 07:54:02;;;;;;;14.10;11.03;;;;;;;3.18;92.03;95299.91;5093174;28;20979;-82
2021/01/07 07:56:28;;;;;;;18.60;12.13;;;;;;;3.90;86.11;95296.66;5093322;28;20557;-80
2021/01/07 07:58:58;;;;;;;16.73;11.57;;;;;;;4.51;79.63;95301.88;5093483;28;20754;-82
2021/01/07 08:01:34;;;;;;;12.43;10.47;;;;;;;4.80;70.36;95298.31;5092948;28;20203;-78
2021/01/07 08:04:01;;;;;;;12.67;10.30;;;;;;;4.51;69.40;95296.78;5092658;28;20235;-79
2021/01/07 08:06:27;;;;;;;13.73;11.27;;;;;;;4.19;69.09;95305.88;5092744;28;20207;-80
2021/01/07 08:09:02;;;;;;;15.97;11.10;;;;;;;3.74;69.29;95302.38;5092402;28;20286;-79
2021/01/07 08:11:30;;;;;;;13.60;11.30;;;;;;;3.52;71.22;95312.13;5093040;28;20196;-81
2021/01/07 08:13:57;;;;;;;15.43;11.70;;;;;;;3.26;71.57;95305.13;5092446;28;20303;-80
2021/01/07 08:16:25;;;;;;;13.77;11.40;;;;;;;3.06;72.59;95312.00;5093493;28;20203;-79
2021/01/07 08:18:51;;;;;;;13.10;11.07;;;;;;;2.97;72.34;95310.25;5092239;28;20204;-81
2021/01/07 08:21:17;;;;;;;14.63;11.70;;;;;;;2.90;73.16;95308.38;5093205;28;20480;-81
2021/01/07 08:23:43;;;;;;;13.63;11.30;;;;;;;2.88;73.61;95312.84;5092178;28;20277;-80
2021/01/07 08:26:15;;;;;;;14.80;11.10;;;;;;;2.77;73.68;95312.03;5092040;28;20200;-79
2021/01/07 08:28:44;;;;;;;14.23;11.70;;;;;;;2.72;73.87;95315.91;5092430;28;20212;-81
2021/01/07 08:31:13;;;;;;;13.77;11.27;;;;;;;2.76;74.21;95310.41;5091857;28;20200;-81
2021/01/07 08:33:39;;;;;;;14.70;11.33;;;;;;;2.84;73.87;95316.59;5092308;28;20793;-79
2021/01/07 08:36:09;;;;;;;13.93;10.40;;;;;;;2.82;73.64;95311.63;5090769;28;20203;-79
2021/01/07 08:38:36;;;;;;;13.90;10.87;;;;;;;2.86;73.79;95314.72;5091765;28;20571;-81
2021/01/07 08:41:11;;;;;;;13.50;10.67;;;;;;;2.82;73.44;95321.00;5092653;28;20261;-78
2021/01/07 08:43:37;;;;;;;13.73;11.00;;;;;;;2.81;73.32;95325.28;5091984;28;20277;-81
2021/01/07 08:46:17;;;;;;;15.30;11.53;;;;;;;2.85;73.53;95318.19;5087553;28;20678;-81
2021/01/07 08:48:44;;;;;;;15.87;11.67;;;;;;;2.87;73.34;95321.41;5078896;28;20211;-80
2021/01/07 08:51:18;;;;;;;14.17;11.43;;;;;;;2.92;73.54;95317.50;5089797;28;20201;-79
2021/01/07 08:53:48;;;;;;;16.03;10.87;;;;;;;2.82;73.56;95313.38;5090911;28;20220;-80
2021/01/07 08:56:29;;;;;;;14.80;11.03;;;;;;;2.92;73.82;95312.41;5091232;28;20543;-80
2021/01/07 08:59:26;;;;;;;15.40;11.63;;;;;;;2.92;73.28;95314.94;5091415;28;20199;-77
2021/01/07 09:01:54;;;;;;;15.43;11.43;;;;;;;2.99;73.42;95307.59;5090690;28;20199;-79
2021/01/07 09:04:25;;;;;;;15.50;12.00;;;;;;;3.01;72.94;95306.50;5090758;28;20273;-79
2021/01/07 09:06:58;;;;;;;14.70;11.77;;;;;;;3.03;73.48;95309.72;5091851;28;20200;-79
2021/01/07 09:09:25;;;;;;;13.90;11.10;;;;;;;3.06;73.40;95308.66;5090895;28;20200;-79
2021/01/07 09:12:08;;;;;;;13.17;11.23;;;;;;;3.08;73.21;95302.47;5090780;28;20701;-78
2021/01/07 09:14:45;;;;;;;16.00;12.77;;;;;;;3.21;73.18;95309.00;5091173;28;20216;-79
2021/01/07 09:17:11;;;;;;;19.37;13.00;;;;;;;3.21;72.15;95306.47;5091756;28;20204;-79
2021/01/07 09:19:37;;;;;;;14.43;11.07;;;;;;;3.26;72.44;95294.94;5090255;28;20201;-79
2021/01/07 09:22:03;;;;;;;14.80;10.97;;;;;;;3.20;71.76;95300.56;5091518;28;20620;-79
2021/01/07 09:24:34;;;;;;;13.10;10.67;;;;;;;3.28;71.34;95297.31;5089494;28;20238;-79
2021/01/07 09:27:12;;;;;;;13.83;11.03;;;;;;;3.37;71.39;95297.31;5091034;28;20200;-79
2021/01/07 09:29:39;;;;;;;13.50;11.00;;;;;;;3.42;71.34;95297.69;5091867;28;20207;-80
2021/01/07 09:32:06;;;;;;;14.63;11.00;;;;;;;3.52;71.32;95297.66;5091669;28;20207;-80
2021/01/07 09:34:32;;;;;;;14.10;11.40;;;;;;;3.54;71.08;95294.97;5090781;28;20596;-81
2021/01/07 09:37:07;;;;;;;14.67;11.37;;;;;;;3.51;70.16;95292.69;5090380;28;20736;-79
2021/01/07 09:39:33;;;;;;;15.03;11.87;;;;;;;3.54;70.53;95292.41;5091286;28;20199;-78
2021/01/07 09:41:59;;;;;;;15.50;11.33;;;;;;;3.44;70.69;95285.63;5091117;28;20589;-81
2021/01/07 09:44:26;;;;;;;15.47;12.27;;;;;;;3.53;70.94;95294.16;5090910;28;20258;-77
2021/01/07 09:46:53;;;;;;;14.03;11.37;;;;;;;3.63;70.82;95289.03;5090487;28;20219;-78
2021/01/07 09:49:19;;;;;;;14.13;11.60;;;;;;;3.61;70.89;95293.47;5090860;28;20199;-81
2021/01/07 09:51:46;;;;;;;13.33;11.03;;;;;;;3.74;70.99;95288.84;5090841;28;20748;-79
2021/01/07 09:54:11;;;;;;;14.13;10.87;;;;;;;3.67;70.35;95288.59;5090106;28;20212;-81
2021/01/07 09:56:37;;;;;;;14.87;12.07;;;;;;;3.90;70.02;95285.66;5090393;28;20219;-79
2021/01/07 09:59:03;;;;;;;14.43;11.93;;;;;;;4.15;69.75;95292.63;5090446;28;20203;-80
2021/01/07 10:01:30;;;;;;;14.07;11.30;;;;;;;4.27;68.85;95283.00;5090188;28;20196;-78
2021/01/07 10:03:56;;;;;;;20.77;15.73;;;;;;;4.42;68.55;95289.22;5090352;28;20602;-79
2021/01/07 10:06:22;;;;;;;17.63;14.27;;;;;;;4.62;68.42;95279.69;5090481;28;20200;-79
2021/01/07 10:08:48;;;;;;;14.37;11.53;;;;;;;4.74;66.70;95279.28;5090589;28;20196;-81
2021/01/07 10:11:14;;;;;;;13.03;11.20;;;;;;;4.89;67.59;95286.41;5090833;28;20317;-80
2021/01/07 10:13:40;;;;;;;14.80;11.83;;;;;;;4.95;65.85;95276.41;5090173;28;20266;-76
2021/01/07 10:16:10;;;;;;;14.43;11.60;;;;;;;5.06;66.07;95270.25;5089470;28;20241;-77
2021/01/07 10:18:37;;;;;;;12.33;11.03;;;;;;;5.12;65.28;95277.31;5089775;28;20200;-78
2021/01/07 10:21:07;;;;;;;14.50;12.03;;;;;;;5.15;65.35;95271.91;5089699;28;20251;-79
2021/01/07 10:23:34;;;;;;;13.33;11.10;;;;;;;5.15;65.65;95267.59;5089574;28;20219;-80
2021/01/07 10:26:00;;;;;;;14.40;11.70;;;;;;;5.11;65.22;95271.41;5089628;28;20260;-77
2021/01/07 10:28:27;;;;;;;14.90;12.03;;;;;;;4.98;65.28;95271.00;5089677;28;20250;-78
2021/01/07 10:30:53;;;;;;;13.80;11.83;;;;;;;4.89;64.51;95268.53;5090281;28;20253;-80
2021/01/07 10:33:20;;;;;;;12.83;10.87;;;;;;;4.90;65.70;95275.25;5089151;28;20207;-77
2021/01/07 10:35:47;;;;;;;13.90;11.23;;;;;;;4.86;65.39;95265.34;5088713;28;20197;-79
2021/01/07 10:38:19;;;;;;;13.97;11.77;;;;;;;4.85;65.56;95270.59;5090165;28;20590;-77
2021/01/07 10:40:45;;;;;;;13.63;11.57;;;;;;;4.62;65.78;95265.16;5089666;28;20204;-81
2021/01/07 10:43:12;;;;;;;12.53;10.73;;;;;;;4.60;65.99;95268.81;5090138;28;20234;-79
2021/01/07 10:45:39;;;;;;;14.17;12.07;;;;;;;4.61;65.95;95261.03;5090060;28;20310;-80
2021/01/07 10:48:10;;;;;;;24.97;18.80;;;;;;;4.61;65.84;95262.78;5090487;28;20230;-78
2021/01/07 10:50:36;;;;;;;14.57;11.87;;;;;;;4.67;65.94;95262.16;5090344;28;20219;-79
2021/01/07 10:53:16;;;;;;;11.67;10.43;;;;;;;4.66;65.85;95258.81;5089920;28;20207;-79
2021/01/07 10:55:52;;;;;;;14.07;11.20;;;;;;;4.57;65.60;95259.72;5088903;28;20664;-79
2021/01/07 10:58:44;;;;;;;13.20;10.43;;;;;;;4.45;65.68;95251.47;5090157;28;20211;-81
2021/01/07 11:01:33;;;;;;;12.97;10.60;;;;;;;4.35;65.35;95258.41;5093741;28;20204;-78
2021/01/07 11:04:46;;;;;;;10.30;9.20;;;;;;;4.23;66.25;95261.34;5092437;28;20216;-78
2021/01/07 11:07:19;;;;;;;12.43;9.97;;;;;;;4.15;65.92;95252.66;5092686;28;20196;-80
2021/01/07 11:09:51;;;;;;;11.83;10.10;;;;;;;4.20;66.75;95252.25;5093519;28;20206;-80
2021/01/07 11:12:22;;;;;;;13.03;10.33;;;;;;;4.29;73.64;95248.78;5093249;28;20211;-81
2021/01/07 11:14:52;;;;;;;10.53;7.83;;;;;;;4.98;84.49;95248.06;5098250;28;20241;-80
2021/01/07 11:17:23;;;;;;;10.80;8.67;;;;;;;5.20;65.68;95236.50;5096837;28;20226;-80
2021/01/07 11:19:50;;;;;;;10.63;8.93;;;;;;;5.02;64.51;95223.81;5092612;28;20227;-80
2021/01/07 11:22:20;;;;;;;10.60;8.23;;;;;;;4.86;67.77;95236.47;5093441;28;20200;-83
2021/01/07 11:24:48;;;;;;;9.60;8.20;;;;;;;4.43;63.97;95235.53;5092720;28;20232;-79
2021/01/07 11:27:15;;;;;;;10.10;8.63;;;;;;;4.29;64.75;95236.06;5093435;28;20200;-79
2021/01/07 11:29:41;;;;;;;10.60;9.37;;;;;;;4.15;65.37;95229.75;5093125;28;20575;-81
2021/01/07 11:32:07;;;;;;;11.77;10.10;;;;;;;4.15;65.47;95234.03;5093409;28;20282;-81
2021/01/07 11:34:34;;;;;;;10.57;9.00;;;;;;;4.13;65.89;95226.53;5092803;28;20216;-82